South Cave, United Kingdom
Current Conditions -  °F | °C
As of 11:50 AM on Sunday 21 Dec 2014 (Local Time) from EGXV Reporting Station
Broken Clouds Broken Clouds  
Wind Chill: 50°   Ceiling: 17000
Heat Index: 50°   Visibility: 6mi
Dew Point: 43°   Wind: 21mph
Humidity: 76%   Direction: 240°WSW
Pressure: 30.06"   Gusts: NA
Location:  53.77°N, 0.6°W
Report Text: EGXV 211150Z AUTO 24018KT 9999 FEW070/// BKN170/// 10/06 Q1018
Loading
Personal Weather Stations






























Interactive Weather Map New forecast layout! Learn more

10-Day Weather Forecast

Advertisements
Track Severe Weather on mobile